createdAt,value
2023-04-19T10:10:42.929Z,31.85
2023-04-19T10:13:48.906Z,30.60
2023-04-19T10:16:51.919Z,29.63
2023-04-19T10:19:59.667Z,31.40
2023-04-19T10:23:02.212Z,28.50
2023-04-19T10:26:05.412Z,30.05
2023-04-19T10:29:13.022Z,27.23
2023-04-19T10:32:15.139Z,30.65
2023-04-19T10:35:21.274Z,29.95
2023-04-19T10:38:36.231Z,27.02
2023-04-19T10:42:00.240Z,28.63
2023-04-19T10:45:34.480Z,28.13
2023-04-19T10:48:38.841Z,21.88
2023-04-19T10:51:40.964Z,16.88
2023-04-19T10:54:42.728Z,16.98
2023-04-19T10:58:04.820Z,16.33
2023-04-19T11:01:32.627Z,19.67
2023-04-19T11:05:00.397Z,24.08
2023-04-19T11:08:02.339Z,22.30
2023-04-19T11:11:04.302Z,20.70
2023-04-19T11:14:09.554Z,20.15
2023-04-19T11:17:16.260Z,22.80
2023-04-19T11:20:18.963Z,22.48
2023-04-19T11:23:20.802Z,20.90
2023-04-19T11:26:23.917Z,19.80
2023-04-19T11:29:27.200Z,23.83
2023-04-19T11:32:28.991Z,20.58
2023-04-19T11:35:30.790Z,14.02
2023-04-19T11:38:32.564Z,12.25
2023-04-19T11:41:38.393Z,12.48
2023-04-19T11:44:48.430Z,12.82
2023-04-19T11:47:50.963Z,8.60
2023-04-19T11:50:58.595Z,7.80
2023-04-19T11:54:00.494Z,6.10
2023-04-19T11:57:04.709Z,5.25
2023-04-19T12:00:09.591Z,4.63
2023-04-19T12:03:13.379Z,4.28
2023-04-19T12:06:18.023Z,3.90
2023-04-19T12:09:22.888Z,4.25
2023-04-19T12:12:32.058Z,4.85
2023-04-19T12:15:45.791Z,5.25
2023-04-19T12:18:50.040Z,4.15
2023-04-19T12:21:52.328Z,3.85
2023-04-19T12:24:57.856Z,6.65
2023-04-19T12:28:04.624Z,4.72
2023-04-19T12:31:09.325Z,4.00
2023-04-19T12:34:12.712Z,5.38
2023-04-19T12:37:14.428Z,3.55
2023-04-19T12:40:19.210Z,4.32
2023-04-19T12:43:21.022Z,4.38
2023-04-19T12:46:25.307Z,3.10
2023-04-19T12:49:30.265Z,4.65
2023-04-19T12:52:32.049Z,4.43
2023-04-19T12:55:33.933Z,4.03
2023-04-19T12:58:35.763Z,4.38
2023-04-19T13:01:38.949Z,5.18
2023-04-19T13:04:41.962Z,5.88
2023-04-19T13:07:43.945Z,5.15
2023-04-19T13:10:46.319Z,4.53
2023-04-19T13:13:48.368Z,4.43
2023-04-19T13:16:51.575Z,4.95
2023-04-19T13:19:53.965Z,6.47
2023-04-19T13:22:55.843Z,5.40
2023-04-19T13:25:57.586Z,5.63
2023-04-19T13:28:59.683Z,7.35
2023-04-19T13:32:03.920Z,5.60
2023-04-19T13:35:08.081Z,5.18
2023-04-19T13:38:10.004Z,6.13
2023-04-19T13:41:11.975Z,10.45
2023-04-19T13:44:13.928Z,5.93
2023-04-19T13:47:17.319Z,7.70
2023-04-19T13:50:21.208Z,7.55
2023-04-19T13:53:23.325Z,6.10
2023-04-19T13:56:25.124Z,4.45
2023-04-19T13:59:27.898Z,5.38
2023-04-19T14:02:35.209Z,3.83
2023-04-19T14:05:37.523Z,3.28
2023-04-19T14:08:39.748Z,3.28
2023-04-19T14:11:44.863Z,5.07
2023-04-19T14:14:46.653Z,2.88
2023-04-19T14:17:50.140Z,3.10
2023-04-19T14:20:52.717Z,3.63
2023-04-19T14:23:54.664Z,3.03
2023-04-19T14:27:09.699Z,4.75
2023-04-19T14:30:25.511Z,4.72
2023-04-19T14:33:29.632Z,3.25
2023-04-19T14:36:31.474Z,3.83
2023-04-19T14:39:33.220Z,4.18
2023-04-19T14:42:36.109Z,3.90
2023-04-19T14:45:37.969Z,4.40
2023-04-19T14:48:41.201Z,4.43
2023-04-19T14:51:43.988Z,4.07
2023-04-19T14:54:46.192Z,5.10
2023-04-19T14:57:52.642Z,4.90
2023-04-19T15:00:54.464Z,5.22
2023-04-19T15:04:00.801Z,4.82
2023-04-19T15:07:03.410Z,6.05
2023-04-19T15:10:06.332Z,6.15
2023-04-19T15:13:08.450Z,4.22
2023-04-19T15:16:10.420Z,3.80
2023-04-19T15:19:13.643Z,4.43
2023-04-19T15:22:15.461Z,4.38
2023-04-19T15:25:17.861Z,7.22
2023-04-19T15:28:19.925Z,4.53
2023-04-19T15:31:22.897Z,4.65
2023-04-19T15:34:26.647Z,4.47
2023-04-19T15:37:28.400Z,7.68
2023-04-19T15:40:30.233Z,6.57
2023-04-19T15:43:32.197Z,6.97
2023-04-19T15:46:36.763Z,5.85
2023-04-19T15:49:42.338Z,5.50
2023-04-19T15:52:44.437Z,5.40
2023-04-19T15:55:46.216Z,5.40
2023-04-19T15:58:47.998Z,6.45
2023-04-19T16:01:49.849Z,4.38
2023-04-19T16:04:54.295Z,5.35
2023-04-19T16:08:03.307Z,5.20
2023-04-19T16:11:07.135Z,4.53
2023-04-19T16:14:09.002Z,6.30
2023-04-19T16:17:10.760Z,7.28
2023-04-19T16:20:13.998Z,6.28
2023-04-19T16:23:16.565Z,5.07
2023-04-19T16:26:18.328Z,9.57
2023-04-19T16:29:20.123Z,6.38
2023-04-19T16:32:22.519Z,5.55
2023-04-19T16:35:26.738Z,5.95
2023-04-19T16:38:28.564Z,5.25
2023-04-19T16:41:30.619Z,7.25
2023-04-19T16:44:32.459Z,5.30
2023-04-19T16:47:35.495Z,6.32
2023-04-19T16:50:42.185Z,6.75
2023-04-19T16:53:44.118Z,5.88
2023-04-19T16:56:46.144Z,5.80
2023-04-19T16:59:58.825Z,4.72
2023-04-19T17:03:01.104Z,6.00
2023-04-19T17:06:05.583Z,6.03
2023-04-19T17:09:07.430Z,10.45
2023-04-19T17:12:09.197Z,6.10
2023-04-19T17:15:11.961Z,6.88
2023-04-19T17:18:16.022Z,7.53
2023-04-19T17:21:19.341Z,6.35
2023-04-19T17:24:21.154Z,6.70
2023-04-19T17:27:23.176Z,7.00
2023-04-19T17:30:25.063Z,6.78
2023-04-19T17:33:28.440Z,6.45
2023-04-19T17:36:31.671Z,8.75
2023-04-19T17:39:33.777Z,5.95
2023-04-19T17:42:35.606Z,6.28
2023-04-19T17:45:37.532Z,6.70
2023-04-19T17:48:40.248Z,8.07
2023-04-19T17:51:44.317Z,5.95
2023-04-19T17:54:47.590Z,6.75
2023-04-19T17:57:49.957Z,7.38
2023-04-19T18:00:55.905Z,7.53
2023-04-19T18:07:31.465Z,6.35
2023-04-19T18:10:34.779Z,8.90
2023-04-19T18:13:37.840Z,9.82
2023-04-19T18:16:40.438Z,9.38
2023-04-19T18:19:43.865Z,13.27
2023-04-19T18:22:50.892Z,7.30
2023-04-19T18:25:54.454Z,7.85
2023-04-19T18:28:56.707Z,9.30
2023-04-19T18:32:09.727Z,9.65
2023-04-19T18:35:14.277Z,7.40
2023-04-19T18:38:18.452Z,8.20
2023-04-19T18:41:21.336Z,6.88
2023-04-19T18:44:49.501Z,9.02
2023-04-19T18:47:51.634Z,8.75
2023-04-19T18:50:54.928Z,7.55
2023-04-19T18:54:02.783Z,8.48
2023-04-19T18:57:22.422Z,7.80
2023-04-19T19:00:26.217Z,7.70
2023-04-19T19:03:56.827Z,8.50
2023-04-19T19:06:56.158Z,8.55
2023-04-19T19:10:06.335Z,7.57
2023-04-19T19:13:19.369Z,7.35
2023-04-19T19:16:21.888Z,8.32
2023-04-19T19:19:34.769Z,8.90
2023-04-19T19:22:37.119Z,7.75
2023-04-19T19:25:42.861Z,7.97
2023-04-19T19:28:46.098Z,7.63
2023-04-19T19:31:49.653Z,9.25
2023-04-19T19:35:00.181Z,11.18
2023-04-19T19:38:05.112Z,12.52
2023-04-19T19:41:55.118Z,11.38
2023-04-19T19:44:31.037Z,9.88
2023-04-19T19:47:36.907Z,9.15
2023-04-19T19:53:57.138Z,9.32
2023-04-19T19:57:52.980Z,7.93
2023-04-19T20:00:44.015Z,6.65
2023-04-19T20:03:49.583Z,7.65
2023-04-19T20:10:09.064Z,8.32
2023-04-19T20:13:13.530Z,9.35
2023-04-19T20:16:17.168Z,9.02
2023-04-19T20:22:50.458Z,10.15
2023-04-19T20:25:53.238Z,10.35
2023-04-19T20:28:58.447Z,10.35
2023-04-19T20:32:00.480Z,10.85
2023-04-19T20:35:03.379Z,11.32
2023-04-19T20:38:06.095Z,10.07
2023-04-19T20:41:10.279Z,9.82
2023-04-19T20:44:17.824Z,10.20
2023-04-19T20:47:26.015Z,9.80
2023-04-19T20:50:28.265Z,9.00
2023-04-19T20:53:30.291Z,8.68
2023-04-19T20:56:32.264Z,9.55
2023-04-19T20:59:35.572Z,9.88
2023-04-19T21:02:37.451Z,8.52
2023-04-19T21:05:39.289Z,9.55
2023-04-19T21:08:41.524Z,9.27
2023-04-19T21:11:43.274Z,11.02
2023-04-19T21:14:49.081Z,10.15
2023-04-19T21:17:51.251Z,9.18
2023-04-19T21:20:53.082Z,6.70
2023-04-19T21:23:54.818Z,5.60
2023-04-19T21:26:56.630Z,4.13
2023-04-19T21:29:59.841Z,5.05
2023-04-19T21:33:01.645Z,5.63
2023-04-19T21:36:03.837Z,7.05
2023-04-19T21:39:05.637Z,5.97
2023-04-19T21:42:07.511Z,5.43
2023-04-19T21:45:11.720Z,6.65
2023-04-19T21:48:13.443Z,8.13
2023-04-19T21:51:15.135Z,5.65
2023-04-19T21:54:26.708Z,4.30
2023-04-19T21:57:32.699Z,4.22
2023-04-19T22:00:35.879Z,3.95
2023-04-19T22:03:37.996Z,5.50
2023-04-19T22:06:40.019Z,2.85
2023-04-19T22:09:41.878Z,3.10
2023-04-19T22:12:57.283Z,3.95
2023-04-19T22:16:00.820Z,2.92
2023-04-19T22:19:03.410Z,2.75
2023-04-19T22:22:05.163Z,2.88
2023-04-19T22:25:07.634Z,2.70
2023-04-19T22:28:09.397Z,2.08
2023-04-19T22:31:12.637Z,3.08
2023-04-19T22:34:14.358Z,3.85
2023-04-19T22:37:16.165Z,4.32
2023-04-19T22:40:17.928Z,5.18
2023-04-19T22:43:20.355Z,5.43
2023-04-19T22:46:23.487Z,5.97
2023-04-19T22:49:25.328Z,6.28
2023-04-19T22:52:27.088Z,5.93
2023-04-19T22:55:28.905Z,5.20
2023-04-19T22:58:30.623Z,6.25
2023-04-19T23:01:33.905Z,5.25
2023-04-19T23:04:35.755Z,5.03
2023-04-19T23:07:37.481Z,6.97
2023-04-19T23:10:39.284Z,7.35
2023-04-19T23:13:41.053Z,9.02
2023-04-19T23:16:44.203Z,8.07
2023-04-19T23:19:45.934Z,7.68
2023-04-19T23:22:47.769Z,7.30
2023-04-19T23:25:49.667Z,5.38
2023-04-19T23:28:51.340Z,5.57
2023-04-19T23:31:54.481Z,6.07
2023-04-19T23:34:56.238Z,5.43
2023-04-19T23:37:58.006Z,4.55
2023-04-19T23:40:59.853Z,5.90
2023-04-19T23:44:01.562Z,8.07
2023-04-19T23:47:05.254Z,9.13
2023-04-19T23:50:08.137Z,7.85
2023-04-19T23:53:09.895Z,8.82
2023-04-19T23:56:11.633Z,7.03
2023-04-19T23:59:13.495Z,8.25
